• Join FlightAware (Why Join?)
  • Login
  • US Flag 
05:16AM EDT


 

Airport Tracker/Info


-or-


 

Live Flight TrackerFlight Track Log ✈ AWI3704 ✈ 07-Jul-2013 ✈ KALB - KPHL

Flight Track Log - Related Links

Times and Time Zones

All times are in EDT time to prevent confusion due to time zone crossing. See the AWI3704 flight status page for this flight to view local times or setup timezone preferences in your user account.

Time Position Orientation Groundspeed Altitude Reporting Facility
EDT Latitude Longitude Course Direction KTS MPH feet Rate Location/Type
11:34AM 42.6817 -73.8269 200° South 198 228 2,800  Level Boston Center
11:35AM 42.7334 -74.1641 270° West  Level FlightAware Approximate
11:35AM 42.6886 -73.9342 275° West 203 234 5,900  Level Boston Center
11:36AM 42.7333 -74.2855 270° West  Level FlightAware Approximate
11:36AM 42.7019 -74.0250 281° West 216 249 7,200  Level Boston Center
11:37AM 42.6790 -74.3758 220° Southwest  Level FlightAware Approximate
11:37AM 42.7192 -74.1300 283° West 245 282 9,600  Level Boston Center
11:38AM 42.6103 -74.4530 220° Southwest  Level FlightAware Approximate
11:38AM 42.7325 -74.2208 281° West 266 306 11,500  Level Boston Center
11:39AM 42.7286 -74.3253 267° West 261 300 13,800 1,680 Climbing Boston Center
11:40AM 42.6714 -74.3914 220° Southwest 267 307 14,900 1,080 Climbing Boston Center
11:41AM 42.6011 -74.4767 222° Southwest 306 352 16,000 480 Climbing Boston Center
11:43AM 42.5414 -74.5450 220° Southwest 325 374 16,000  Level Boston Center
11:44AM 42.4539 -74.6464 221° Southwest 325 374 16,000  Level Boston Center
11:45AM 42.3817 -74.7253 219° Southwest 325 374 16,000  Level Boston Center
11:46AM 42.2758 -74.8486 221° Southwest 320 368 16,000  Level New York Center
11:47AM 42.2044 -74.9308 220° Southwest 320 368 16,000  Level New York Center
11:48AM 42.1206 -75.0067 214° Southwest 340 391 16,000  Level New York Center
11:49AM 42.0369 -75.0767 212° Southwest 355 409 16,000  Level New York Center
11:50AM 41.9531 -75.1494 213° Southwest 370 426 16,000  Level New York Center
11:51AM 41.8758 -75.2083 210° Southwest 370 426 16,000  Level New York Center
11:52AM 41.7919 -75.2778 212° Southwest 370 426 16,000  Level New York Center
11:53AM 41.7039 -75.3497 211° Southwest 358 412 16,000  Level New York Center
11:54AM 41.6203 -75.4133 210° Southwest 351 404 16,000 -780 Level New York Center
11:55AM 41.5472 -75.4719 211° Southwest 351 404 14,500 -1,740 Descending New York Center
11:56AM 41.4675 -75.5356 211° Southwest 351 404 12,600 -1,260 Descending New York Center
11:57AM 41.3836 -75.6042 212° Southwest 343 395 12,000 -360 Descending New York Center
11:58AM 41.3125 -75.6600 211° Southwest 343 395 12,000 -900 Level New York Center
11:59AM 41.2197 -75.6892 193° South 324 373 10,300 -1,020 Descending New York Center
12:00PM 41.1331 -75.6664 169° South 314 361 10,000 -180 Descending New York Center
12:01PM 41.0572 -75.6386 165° South 314 361 10,000  Level New York Center
12:02PM 40.9728 -75.6133 167° South 314 361 10,000  Level New York Center
12:03PM 40.8783 -75.5792 165° South 319 367 10,000  Level New York Center
12:04PM 40.7961 -75.5517 166° South 313 360 10,000  Level New York Center
12:05PM 40.7117 -75.5239 166° South 313 360 10,000  Level New York Center
12:06PM 40.6275 -75.4933 165° South 313 360 10,000  Level New York Center
12:07PM 40.5453 -75.4658 166° South 313 360 10,000 -300 Level New York Center
12:08PM 40.4672 -75.4386 165° South 307 353 9,500 -960 Descending New York Center
12:09PM 40.3994 -75.4094 162° South 291 335 8,100 -1,680 Descending New York Center
12:10PM 40.3283 -75.3667 155° Southeast 285 328 6,200 -1,980 Descending New York Center
12:11PM 40.2508 -75.3233 157° South 285 328 4,200 -1,200 Descending New York Center
12:12PM 40.1814 -75.2836 156° South 285 328 3,900 -180 Descending New York Center
12:13PM 40.1119 -75.2464 158° South 280 322 3,900  Level New York Center
12:14PM 40.0425 -75.2122 159° South 280 322 4,000  Climbing New York Center
12:15PM 39.9706 -75.1806 161° South 280 322 4,000  Level New York Center
12:16PM 39.9333 -75.1667 164° South 269 310 4,000 -120 Level Philadelphia TRACON
12:17PM 39.8667 -75.1333 159° South 267 307 3,900 -540 Descending Philadelphia TRACON
12:18PM 39.8000 -75.1167 169° South 225 259 3,000 -1,020 Descending Philadelphia TRACON